Strona główna
METAR-TAF:

METAR-TAF

Lotnisko :

Port lotniczy Kraków-Balice

Kraków, Polska

Szerokość geograficzna: 50-05N, Długość geograficzna: 019-48E, wysokość: 237 m

Aktualna obserwacja pogody

Raport powstał 22 minut temu, godzina 15:30 UTC
Wiatr 9 kt od wschodnio-północny wschód
Temperatura 24°C
Wilgotność 57%
Ciśnienie 1018 hPa
Widzialność 10 km lub więcej
Mało chmury na wysokości 4300 ft

METAR: EPKK 161530Z 06009KT 9999 FEW043 24/15 Q1018

czas: 17:52 (15:52 UTC)

Prognoza

Raport powstał 1 godzina i 22 minut temu, godzina 14:30 UTC
Prognoza ważna od 16 godzina 15 UTC do 17 godzina 15 UTC
Wiatr 6 kt od wschodnio-północny wschód
Widzialność 10 km lub więcej
Brak chmur poniżej 1500 m i brak chmur cumulonimbus
Prawdopodobieństwo 30%
od 16 godzina 22 UTC do 17 godzina 05 UTC
Widzialność: 2000 m
zamglenie
Przejściowo
od 17 godzina 10 UTC do 17 godzina 15 UTC
Rozproszone chmury na wysokości 4000 ft, Cumulusy wypiętrznone.

TAF: EPKK 161430Z 1615/1715 06006KT CAVOK PROB30 1622/1705 2000 BR TEMPO 1710/1715 SCT040TCU

Obserwacja i prognoza pogody dla ponad 4000 lotnisk (raport METAR i TAF).

Dostępne stacje oznaczono żółtymi i czerwonymi punktami na mapie.

Najedź kursorem aby zobaczyć nazwę stacji.

Kliknij aby zobaczyć obserwacje i prognozy pogody.

Aby zmienić mapę: kliknij na zielony przycisk z czarnym krzyżykiem, aby powiększyć; na zielony przycisk z myślnikiem, aby pomniejszyć; na zielone strzałki, aby przejść do map sąsiednich.


METAR-TAF: